Time;durP1;ratioP1;P1;durP2;ratioP2;P2;SDS_P1;SDS_P2;PMS_P1;PMS_P2;Temp;Humidity;BMP_temperature;BMP_pressure;BME280_temperature;BME280_humidity;BME280_pressure;Samples;Min_cycle;Max_cycle;Signal;HPM_P1;HPM_P2
2021/12/13 00:01:19;;;;;;;76.20;23.65;;;10.50;99.90;;;;;;5033934;28;20042;-60
2021/12/13 00:04:06;;;;;;;85.68;25.60;;;10.60;99.90;;;;;;5034100;28;20033;-60
2021/12/13 00:06:37;;;;;;;86.63;26.23;;;10.60;99.90;;;;;;5032715;28;20052;-60
2021/12/13 00:09:06;;;;;;;83.57;24.52;;;10.50;99.90;;;;;;5033903;28;20060;-60
2021/12/13 00:11:37;;;;;;;90.43;26.63;;;10.60;99.90;;;;;;5035494;28;20041;-60
2021/12/13 00:14:20;;;;;;;88.15;26.13;;;10.40;99.90;;;;;;5037753;28;20055;-60
2021/12/13 00:16:49;;;;;;;97.65;26.75;;;10.50;99.90;;;;;;5036757;28;20055;-59
2021/12/13 00:19:21;;;;;;;91.43;26.63;;;10.60;99.90;;;;;;5036065;28;20041;-60
2021/12/13 00:22:01;;;;;;;97.82;28.85;;;10.50;99.90;;;;;;5036358;28;20049;-60
2021/12/13 00:24:39;;;;;;;75.30;27.73;;;10.70;99.90;;;;;;5037584;28;20048;-62
2021/12/13 00:27:31;;;;;;;94.75;28.95;;;10.50;99.90;;;;;;5037463;28;20045;-62
2021/12/13 00:30:33;;;;;;;89.15;25.73;;;10.60;99.90;;;;;;5037435;28;20049;-62
2021/12/13 00:33:37;;;;;;;83.07;25.92;;;10.40;99.90;;;;;;5035670;28;20060;-62
2021/12/13 00:36:28;;;;;;;86.63;27.50;;;10.50;99.90;;;;;;5036885;28;20088;-62
2021/12/13 00:39:11;;;;;;;82.72;27.58;;;10.60;99.90;;;;;;5036967;28;20073;-62
2021/12/13 00:41:40;;;;;;;74.45;25.15;;;10.60;99.90;;;;;;5036733;28;20037;-62
2021/12/13 00:44:10;;;;;;;62.42;24.50;;;10.50;99.90;;;;;;5036929;28;20044;-62
2021/12/13 00:46:38;;;;;;;56.15;22.65;;;10.60;99.90;;;;;;5037029;28;20038;-62
2021/12/13 00:49:10;;;;;;;67.03;22.88;;;10.60;99.90;;;;;;5036978;28;20057;-61
2021/12/13 00:51:56;;;;;;;63.58;23.88;;;10.50;99.90;;;;;;5036485;28;20060;-62
2021/12/13 00:54:35;;;;;;;55.17;20.98;;;10.40;99.90;;;;;;5036790;28;20037;-62
2021/12/13 00:57:01;;;;;;;48.65;18.88;;;10.60;99.90;;;;;;5036169;28;20042;-62
2021/12/13 00:59:42;;;;;;;51.03;19.17;;;10.50;99.90;;;;;;5036467;28;20071;-62
2021/12/13 01:02:35;;;;;;;45.72;17.55;;;10.70;99.90;;;;;;5036768;28;20033;-62
2021/12/13 01:05:23;;;;;;;38.38;16.90;;;10.70;99.90;;;;;;5036550;28;20084;-62
2021/12/13 01:08:02;;;;;;;31.75;16.08;;;10.50;99.90;;;;;;5036061;28;20042;-63
2021/12/13 01:10:52;;;;;;;27.08;13.55;;;10.80;99.90;;;;;;5038028;28;20415;-63
2021/12/13 01:13:21;;;;;;;31.08;13.07;;;10.50;99.90;;;;;;5036646;28;20048;-62
2021/12/13 01:16:30;;;;;;;28.80;14.52;;;10.50;99.90;;;;;;5036608;28;20053;-63
2021/12/13 01:27:35;;;;;;;30.95;15.25;;;10.50;99.90;;;;;;5035707;28;20087;-63
2021/12/13 01:30:02;;;;;;;31.15;16.40;;;10.50;99.90;;;;;;5035821;28;20504;-62
2021/12/13 01:32:42;;;;;;;29.67;16.33;;;10.60;99.90;;;;;;5037172;28;20050;-63
2021/12/13 01:35:14;;;;;;;36.03;18.35;;;10.70;99.90;;;;;;5036050;28;20107;-63
2021/12/13 01:37:41;;;;;;;36.95;16.85;;;;;;;;;;5037509;28;20038;-61
2021/12/13 01:40:11;;;;;;;36.33;18.95;;;10.60;99.90;;;;;;5037775;28;20041;-63
2021/12/13 01:42:37;;;;;;;33.63;16.73;;;10.80;99.90;;;;;;5019064;28;20095;-63
2021/12/13 01:45:11;;;;;;;38.53;18.33;;;10.60;99.90;;;;;;5036029;28;20499;-63
2021/12/13 01:47:40;;;;;;;39.03;19.85;;;10.60;99.90;;;;;;5037347;28;20462;-63
2021/12/13 01:50:41;;;;;;;43.17;20.00;;;10.60;99.90;;;;;;5037293;28;20045;-63
2021/12/13 01:53:07;;;;;;;39.15;18.45;;;10.60;99.90;;;;;;5036659;28;20508;-63
2021/12/13 01:55:37;;;;;;;37.65;19.38;;;10.60;99.90;;;;;;5037533;28;20059;-63
2021/12/13 02:01:11;;;;;;;34.40;19.58;;;10.70;99.90;;;;;;5036166;28;20056;-63
2021/12/13 02:03:49;;;;;;;46.90;21.38;;;10.80;99.90;;;;;;5034944;28;20041;-63
2021/12/13 02:06:24;;;;;;;38.78;18.95;;;10.80;99.90;;;;;;5036242;28;20049;-63
2021/12/13 02:08:51;;;;;;;;;;;10.80;99.90;;;;;;5034878;28;20551;-62
2021/12/13 02:11:17;;;;;;;40.67;19.20;;;10.60;99.90;;;;;;5035416;28;20011;-62
2021/12/13 02:14:04;;;;;;;38.15;19.10;;;10.70;99.90;;;;;;5034722;28;20077;-62
2021/12/13 02:19:38;;;;;;;35.53;17.98;;;10.60;99.90;;;;;;5034137;28;20081;-62
2021/12/13 02:22:22;;;;;;;45.30;17.17;;;10.70;99.90;;;;;;5033918;28;20045;-61
2021/12/13 02:24:49;;;;;;;40.67;18.05;;;10.50;99.90;;;;;;5033547;28;20483;-60
2021/12/13 02:27:20;;;;;;;33.97;17.38;;;10.70;99.90;;;;;;5034852;28;20511;-60
2021/12/13 02:29:47;;;;;;;34.17;15.45;;;10.60;99.90;;;;;;5034904;28;20041;-60
2021/12/13 02:32:13;;;;;;;31.92;17.20;;;10.40;99.90;;;;;;5033659;28;20037;-60
2021/12/13 02:34:42;;;;;;;34.22;16.65;;;10.50;99.90;;;;;;5034966;28;20120;-60
2021/12/13 02:37:10;;;;;;;41.00;16.02;;;10.60;99.90;;;;;;5016796;28;20115;-60
2021/12/13 02:39:40;;;;;;;36.60;15.65;;;10.70;99.90;;;;;;5033791;28;20041;-60
2021/12/13 02:42:08;;;;;;;30.55;13.93;;;10.50;99.90;;;;;;5033527;28;20038;-60
2021/12/13 02:44:44;;;;;;;33.67;14.77;;;10.50;99.90;;;;;;5034302;28;20041;-63
2021/12/13 02:47:36;;;;;;;31.77;14.50;;;10.60;99.90;;;;;;5036287;28;20134;-63
2021/12/13 02:50:07;;;;;;;47.05;17.63;;;10.40;99.90;;;;;;5034938;28;20407;-63
2021/12/13 02:52:33;;;;;;;35.22;14.85;;;10.50;99.90;;;;;;5035887;28;20057;-63
2021/12/13 02:55:03;;;;;;;30.05;15.15;;;10.40;99.90;;;;;;5035941;28;20045;-62
2021/12/13 02:57:33;;;;;;;32.72;14.40;;;10.50;99.90;;;;;;5036431;28;20124;-63
2021/12/13 03:00:16;;;;;;;32.47;14.25;;;10.40;99.90;;;;;;5035149;28;20389;-62
2021/12/13 03:02:47;;;;;;;27.55;14.02;;;10.50;99.90;;;;;;5036105;28;20504;-64
2021/12/13 03:05:19;;;;;;;28.63;13.80;;;10.30;99.90;;;;;;5036226;28;20060;-62
2021/12/13 03:07:50;;;;;;;29.05;13.30;;;10.60;99.90;;;;;;5035984;28;20073;-63
2021/12/13 03:10:24;;;;;;;29.65;12.73;;;10.50;99.90;;;;;;5036219;28;20442;-63
2021/12/13 03:12:50;;;;;;;25.67;12.40;;;10.30;99.90;;;;;;5034140;28;20048;-64
2021/12/13 03:15:20;;;;;;;24.40;11.95;;;10.50;99.90;;;;;;5034144;28;20045;-63
2021/12/13 03:18:08;;;;;;;21.95;11.52;;;10.40;99.90;;;;;;5035558;28;20052;-63
2021/12/13 03:21:20;;;;;;;24.73;12.60;;;10.40;99.90;;;;;;5034829;28;20037;-63
2021/12/13 03:23:55;;;;;;;20.48;10.38;;;10.50;99.90;;;;;;5034124;28;20101;-64
2021/12/13 03:26:50;;;;;;;24.80;10.35;;;10.30;99.90;;;;;;5034512;28;20053;-63
2021/12/13 03:29:41;;;;;;;23.13;9.75;;;10.20;99.90;;;;;;5035170;28;20092;-62
2021/12/13 03:32:11;;;;;;;24.48;8.75;;;10.20;99.90;;;;;;5035866;28;20045;-63
2021/12/13 03:34:38;;;;;;;19.27;8.95;;;10.50;99.90;;;;;;5034799;28;20042;-63
2021/12/13 03:37:19;;;;;;;18.92;8.10;;;10.20;99.90;;;;;;5034454;28;20052;-60
2021/12/13 03:39:49;;;;;;;17.08;7.65;;;10.20;99.90;;;;;;5032718;28;20042;-60
2021/12/13 03:42:24;;;;;;;18.42;7.95;;;10.30;99.90;;;;;;5034093;28;20037;-59
2021/12/13 03:44:54;;;;;;;13.75;6.47;;;10.30;99.90;;;;;;5032732;28;20041;-60
2021/12/13 03:47:25;;;;;;;12.90;6.32;;;10.30;99.90;;;;;;5036287;28;20076;-59
2021/12/13 03:49:54;;;;;;;16.15;6.45;;;10.20;99.90;;;;;;5037848;28;20116;-59
2021/12/13 03:52:23;;;;;;;11.40;5.05;;;10.20;99.90;;;;;;5037557;28;20053;-60
2021/12/13 03:54:52;;;;;;;15.50;6.03;;;10.20;99.90;;;;;;5036479;28;20099;-59
2021/12/13 03:57:19;;;;;;;12.50;6.00;;;10.20;99.90;;;;;;5038092;28;20042;-60
2021/12/13 03:59:46;;;;;;;12.30;5.90;;;10.30;99.90;;;;;;5037425;28;20045;-60
2021/12/13 04:02:18;;;;;;;16.48;6.35;;;10.30;99.90;;;;;;5036322;28;20048;-59
2021/12/13 04:04:54;;;;;;;8.93;4.93;;;10.30;99.90;;;;;;5036233;28;20091;-61
2021/12/13 04:07:24;;;;;;;11.70;4.82;;;10.30;99.90;;;;;;5036162;28;20052;-60
2021/12/13 04:09:55;;;;;;;10.38;4.45;;;10.30;99.90;;;;;;5036629;28;20049;-60
2021/12/13 04:12:30;;;;;;;9.05;3.95;;;10.20;99.90;;;;;;5036472;28;20041;-59
2021/12/13 04:15:01;;;;;;;7.60;4.82;;;10.20;99.90;;;;;;5037811;28;20029;-60
2021/12/13 04:17:43;;;;;;;14.00;5.65;;;10.30;99.90;;;;;;5036667;28;20113;-60
2021/12/13 04:20:20;;;;;;;14.85;5.78;;;10.20;99.90;;;;;;5035751;28;20081;-60
2021/12/13 04:22:51;;;;;;;14.65;5.93;;;10.40;99.90;;;;;;5037716;28;20042;-62
2021/12/13 04:25:21;;;;;;;11.20;6.05;;;10.20;99.90;;;;;;5036381;28;20049;-62
2021/12/13 04:28:05;;;;;;;10.20;5.35;;;10.30;99.90;;;;;;5036924;28;20522;-62
2021/12/13 04:30:40;;;;;;;12.60;5.75;;;10.20;99.90;;;;;;5036160;28;20052;-62
2021/12/13 04:33:23;;;;;;;12.93;6.22;;;10.20;99.90;;;;;;5036227;28;20073;-62
2021/12/13 04:35:52;;;;;;;12.38;6.55;;;10.30;99.90;;;;;;5036277;28;20048;-62
2021/12/13 04:38:25;;;;;;;15.43;6.22;;;10.10;99.90;;;;;;5036742;28;20061;-62
2021/12/13 04:40:53;;;;;;;12.10;6.65;;;10.20;99.90;;;;;;5037084;28;20037;-62
2021/12/13 04:43:20;;;;;;;13.55;6.90;;;10.20;99.90;;;;;;5035486;28;20396;-62
2021/12/13 04:45:52;;;;;;;13.73;7.72;;;10.10;99.90;;;;;;5034838;28;20049;-62
2021/12/13 04:48:25;;;;;;;15.48;7.15;;;10.10;99.90;;;;;;5036289;28;20048;-62
2021/12/13 04:51:04;;;;;;;14.55;7.57;;;10.20;99.90;;;;;;5036350;28;20147;-62
2021/12/13 04:53:44;;;;;;;15.07;8.35;;;10.10;99.90;;;;;;5036515;28;20041;-62
2021/12/13 04:56:13;;;;;;;17.70;7.40;;;10.20;99.90;;;;;;5034605;28;20045;-62
2021/12/13 04:58:39;;;;;;;18.85;8.45;;;10.20;99.90;;;;;;5034838;28;20080;-62
2021/12/13 05:01:12;;;;;;;20.27;8.63;;;10.10;99.90;;;;;;5036753;28;20040;-62
2021/12/13 05:03:49;;;;;;;17.02;8.50;;;10.10;99.90;;;;;;5035852;28;20048;-61
2021/12/13 05:06:19;;;;;;;21.02;9.07;;;10.10;99.90;;;;;;5049586;28;20041;-59
2021/12/13 05:08:48;;;;;;;19.23;8.73;;;10.10;99.90;;;;;;5056632;28;20033;-59
2021/12/13 05:11:15;;;;;;;18.48;8.63;;;10.00;99.90;;;;;;5040776;28;20037;-60
2021/12/13 05:13:54;;;;;;;16.75;8.95;;;9.90;99.90;;;;;;5055033;28;20102;-59
2021/12/13 05:16:42;;;;;;;17.08;9.68;;;10.00;99.90;;;;;;5055157;28;20053;-59
2021/12/13 05:19:10;;;;;;;16.55;8.27;;;9.90;99.90;;;;;;5055725;28;20044;-59
2021/12/13 05:21:45;;;;;;;17.33;9.77;;;10.10;99.90;;;;;;5055120;28;20051;-60
2021/12/13 05:24:19;;;;;;;16.25;8.15;;;10.10;99.90;;;;;;5056340;28;20050;-59
2021/12/13 05:26:51;;;;;;;19.50;8.98;;;9.90;99.90;;;;;;5056448;28;20041;-59
2021/12/13 05:29:31;;;;;;;19.80;9.27;;;9.90;99.90;;;;;;5032310;28;20443;-62
2021/12/13 05:32:02;;;;;;;15.93;8.75;;;9.90;99.90;;;;;;5052045;28;20041;-61
2021/12/13 05:34:35;;;;;;;17.08;7.95;;;10.00;99.90;;;;;;5043280;28;20041;-61
2021/12/13 05:37:04;;;;;;;16.70;8.25;;;10.00;99.90;;;;;;5013782;28;20396;-60
2021/12/13 05:39:30;;;;;;;15.82;7.63;;;10.20;99.90;;;;;;5014078;28;20033;-61
2021/12/13 05:42:08;;;;;;;16.75;9.23;;;10.10;99.90;;;;;;5012815;28;20029;-61
2021/12/13 05:44:37;;;;;;;14.98;8.68;;;9.90;99.90;;;;;;4996201;28;20520;-61
2021/12/13 05:47:16;;;;;;;16.70;9.27;;;9.90;99.90;;;;;;5040328;28;20045;-62
2021/12/13 05:49:44;;;;;;;17.63;8.20;;;10.10;99.90;;;;;;5052866;28;20588;-61
2021/12/13 05:52:24;;;;;;;17.30;8.88;;;10.00;99.90;;;;;;5051129;28;20049;-60
2021/12/13 05:54:57;;;;;;;17.63;8.50;;;10.00;99.90;;;;;;5052538;28;20033;-60
2021/12/13 05:57:36;;;;;;;17.13;8.73;;;9.90;99.90;;;;;;5051994;28;20500;-59
2021/12/13 06:00:08;;;;;;;16.60;8.18;;;10.00;99.90;;;;;;5033786;28;20050;-58
2021/12/13 06:03:15;;;;;;;16.40;8.48;;;9.80;99.90;;;;;;5032284;28;20500;-63
2021/12/13 06:05:48;;;;;;;14.45;8.75;;;9.90;99.90;;;;;;5031701;28;20064;-61
2021/12/13 06:08:21;;;;;;;19.08;9.15;;;9.80;99.90;;;;;;5034296;28;20037;-61
2021/12/13 06:10:51;;;;;;;18.90;9.45;;;9.80;99.90;;;;;;5049865;28;20036;-61
2021/12/13 06:13:43;;;;;;;19.42;9.20;;;9.80;99.90;;;;;;5047990;28;20362;-61
2021/12/13 06:16:11;;;;;;;15.75;10.02;;;9.80;99.90;;;;;;5049740;28;20543;-61
2021/12/13 06:18:43;;;;;;;20.50;10.05;;;9.90;99.90;;;;;;5048443;28;20064;-62
2021/12/13 06:21:30;;;;;;;20.70;10.73;;;9.80;99.90;;;;;;5050163;28;20041;-60
2021/12/13 06:23:56;;;;;;;18.13;10.25;;;;;;;;;;5050050;28;20040;-60
2021/12/13 06:26:27;;;;;;;16.92;10.27;;;9.90;99.90;;;;;;5052175;28;20048;-60
2021/12/13 06:28:55;;;;;;;19.77;10.90;;;9.90;99.90;;;;;;5050739;28;20056;-61
2021/12/13 06:31:22;;;;;;;17.55;11.30;;;9.80;99.90;;;;;;5049517;28;20056;-59
2021/12/13 06:33:52;;;;;;;19.80;10.60;;;9.90;99.90;;;;;;5050633;28;20049;-60
2021/12/13 06:36:32;;;;;;;21.02;13.02;;;9.80;99.90;;;;;;5052249;28;20051;-61
2021/12/13 06:39:11;;;;;;;20.65;12.13;;;9.90;99.90;;;;;;5051135;28;20086;-61
2021/12/13 06:41:42;;;;;;;20.52;11.40;;;9.90;99.90;;;;;;5050027;28;20041;-61
2021/12/13 06:44:08;;;;;;;21.27;12.40;;;;;;;;;;5051517;28;20049;-61
2021/12/13 06:46:34;;;;;;;20.55;11.52;;;9.80;99.90;;;;;;5051219;28;20047;-58
2021/12/13 06:49:09;;;;;;;21.48;12.30;;;9.70;99.90;;;;;;5050836;28;20458;-59
2021/12/13 06:51:46;;;;;;;21.90;12.80;;;9.80;99.90;;;;;;5050279;28;20227;-62
2021/12/13 06:54:17;;;;;;;22.02;12.95;;;9.70;99.90;;;;;;5049697;28;20102;-60
2021/12/13 06:56:44;;;;;;;19.63;13.00;;;9.80;99.90;;;;;;5052437;28;20053;-59
2021/12/13 06:59:16;;;;;;;23.58;13.50;;;9.70;99.90;;;;;;5039439;28;20041;-60
2021/12/13 07:01:54;;;;;;;21.63;13.63;;;9.70;99.90;;;;;;5035631;28;20499;-59
2021/12/13 07:04:20;;;;;;;27.05;14.95;;;9.80;99.90;;;;;;5052506;28;20037;-59
2021/12/13 07:06:45;;;;;;;21.00;14.57;;;9.80;99.90;;;;;;5032492;28;20041;-60
2021/12/13 07:09:21;;;;;;;27.33;15.52;;;9.70;99.90;;;;;;5041816;28;20098;-61
2021/12/13 07:11:54;;;;;;;28.55;15.50;;;9.90;99.90;;;;;;5044688;28;20499;-61
2021/12/13 07:14:36;;;;;;;24.40;15.45;;;9.90;99.90;;;;;;5043385;28;20067;-60
2021/12/13 07:17:30;;;;;;;28.95;15.45;;;9.90;99.90;;;;;;5041278;28;20368;-61
2021/12/13 07:19:57;;;;;;;28.55;16.17;;;9.70;99.90;;;;;;5038028;28;20044;-61
2021/12/13 07:22:26;;;;;;;26.20;15.68;;;9.70;99.90;;;;;;5039085;28;20025;-58
2021/12/13 07:25:07;;;;;;;23.92;16.20;;;9.80;99.90;;;;;;5046594;28;20040;-58
2021/12/13 07:27:41;;;;;;;31.50;17.65;;;9.80;99.90;;;;;;5040420;28;20072;-61
2021/12/13 07:30:18;;;;;;;29.17;17.27;;;9.80;99.90;;;;;;5034875;28;20561;-59
2021/12/13 07:32:54;;;;;;;33.22;16.40;;;9.80;99.90;;;;;;5031019;28;20083;-58
2021/12/13 07:35:37;;;;;;;28.35;18.13;;;9.70;99.90;;;;;;5023774;28;20042;-59
2021/12/13 07:38:03;;;;;;;30.00;17.85;;;;;;;;;;5035725;28;20041;-62
2021/12/13 07:40:50;;;;;;;28.27;17.10;;;9.70;99.90;;;;;;5031196;28;20116;-60
2021/12/13 07:43:34;;;;;;;28.67;17.98;;;9.90;99.90;;;;;;5030761;28;20037;-60
2021/12/13 07:46:27;;;;;;;25.83;16.88;;;9.60;99.90;;;;;;5029322;28;20139;-59
2021/12/13 07:49:08;;;;;;;28.15;18.30;;;9.80;99.90;;;;;;5025945;28;20067;-58
2021/12/13 07:51:47;;;;;;;29.95;17.85;;;9.90;99.90;;;;;;5030009;28;20057;-61
2021/12/13 07:54:17;;;;;;;29.45;18.45;;;10.00;99.90;;;;;;5040018;28;20353;-60
2021/12/13 07:56:54;;;;;;;27.98;18.58;;;10.10;99.90;;;;;;5042992;28;20072;-61
2021/12/13 07:59:25;;;;;;;30.33;17.35;;;10.00;99.90;;;;;;5039638;28;20045;-59
2021/12/13 08:02:05;;;;;;;28.13;17.35;;;9.80;99.90;;;;;;5038096;28;20187;-61
2021/12/13 08:04:42;;;;;;;28.80;20.00;;;9.90;99.90;;;;;;5042522;28;20044;-64
2021/12/13 08:07:12;;;;;;;31.55;19.13;;;9.80;99.90;;;;;;5035195;28;20483;-62
2021/12/13 08:09:45;;;;;;;29.05;18.40;;;9.80;99.90;;;;;;5032675;28;20115;-67
2021/12/13 08:12:24;;;;;;;34.67;18.08;;;9.80;99.90;;;;;;5034456;28;20398;-64
2021/12/13 08:14:53;;;;;;;26.92;18.08;;;9.80;99.90;;;;;;5040068;28;20054;-62
2021/12/13 08:17:26;;;;;;;29.73;18.80;;;9.80;99.90;;;;;;5042704;28;20049;-62
2021/12/13 08:19:57;;;;;;;28.55;17.98;;;9.90;99.90;;;;;;5043285;28;20066;-67
2021/12/13 08:22:28;;;;;;;30.17;18.42;;;9.80;99.90;;;;;;5029139;28;20094;-61
2021/12/13 08:24:56;;;;;;;30.48;18.70;;;9.70;99.90;;;;;;5029615;28;20052;-61
2021/12/13 08:27:28;;;;;;;27.63;18.05;;;9.90;99.90;;;;;;5029363;28;20079;-61
2021/12/13 08:30:15;;;;;;;28.15;18.13;;;10.10;99.90;;;;;;5030531;28;20049;-62
2021/12/13 08:33:19;;;;;;;26.92;17.42;;;10.10;99.90;;;;;;5026755;28;20049;-61
2021/12/13 08:35:46;;;;;;;30.90;18.85;;;10.00;99.90;;;;;;5020031;28;20065;-61
2021/12/13 08:38:25;;;;;;;31.10;19.20;;;9.90;99.90;;;;;;5032516;28;20057;-61
2021/12/13 08:40:50;;;;;;;25.88;16.67;;;10.00;99.90;;;;;;5032728;28;20403;-61
2021/12/13 08:43:43;;;;;;;30.00;17.58;;;9.90;99.90;;;;;;5032132;28;20037;-62
2021/12/13 08:46:11;;;;;;;27.05;17.65;;;9.80;99.90;;;;;;5031393;28;20055;-62
2021/12/13 08:48:50;;;;;;;26.55;17.25;;;9.90;99.90;;;;;;5045877;28;20041;-61
2021/12/13 08:51:23;;;;;;;26.20;17.33;;;9.90;99.90;;;;;;5044685;28;20036;-61
2021/12/13 08:54:10;;;;;;;24.98;16.63;;;9.80;99.90;;;;;;5033164;28;20081;-62
2021/12/13 08:56:49;;;;;;;25.42;17.65;;;10.10;99.90;;;;;;5029045;28;20046;-62
2021/12/13 08:59:26;;;;;;;24.92;16.52;;;10.10;99.90;;;;;;5033522;28;20125;-61
2021/12/13 09:02:10;;;;;;;22.27;16.05;;;9.90;99.90;;;;;;5062271;28;20037;-64
2021/12/13 09:04:43;;;;;;;24.00;16.00;;;10.00;99.90;;;;;;5030649;28;20513;-63
2021/12/13 09:07:13;;;;;;;25.67;16.55;;;10.00;99.90;;;;;;5031416;28;20045;-63
2021/12/13 09:09:45;;;;;;;25.75;16.33;;;10.10;99.90;;;;;;5034536;28;20045;-63
2021/12/13 09:12:14;;;;;;;25.20;17.80;;;10.00;99.90;;;;;;5040061;28;20152;-63
2021/12/13 09:14:51;;;;;;;24.65;17.08;;;10.00;99.90;;;;;;5042410;28;20112;-63
2021/12/13 09:17:36;;;;;;;26.85;17.52;;;10.00;99.90;;;;;;5035525;28;20045;-61
2021/12/13 09:20:13;;;;;;;25.98;16.38;;;10.00;99.90;;;;;;5035538;28;20160;-62
2021/12/13 09:22:53;;;;;;;26.95;16.65;;;9.90;99.90;;;;;;5036641;28;20045;-62
2021/12/13 09:25:41;;;;;;;26.90;16.27;;;9.90;99.90;;;;;;5026198;28;20047;-61
2021/12/13 09:28:12;;;;;;;23.45;17.15;;;9.90;99.90;;;;;;5032634;28;20128;-62
2021/12/13 09:30:53;;;;;;;22.30;15.52;;;10.00;99.90;;;;;;5032440;28;20045;-61
2021/12/13 09:33:28;;;;;;;25.75;16.38;;;9.80;99.90;;;;;;5038629;28;20073;-63
2021/12/13 09:36:12;;;;;;;24.38;16.08;;;10.00;99.90;;;;;;5038843;28;20045;-61
2021/12/13 09:38:45;;;;;;;26.23;16.88;;;10.00;99.90;;;;;;5040735;28;20083;-62
2021/12/13 09:41:44;;;;;;;24.83;16.77;;;10.10;99.90;;;;;;5040387;28;20037;-62
2021/12/13 09:44:14;;;;;;;24.80;15.75;;;;;;;;;;5031986;28;20053;-62
2021/12/13 09:47:01;;;;;;;25.00;16.83;;;10.10;99.90;;;;;;5031442;28;20104;-62
2021/12/13 09:49:45;;;;;;;27.05;16.48;;;9.90;99.90;;;;;;5038724;28;20596;-63
2021/12/13 09:52:31;;;;;;;27.73;16.30;;;10.00;99.90;;;;;;5038539;28;20519;-63
2021/12/13 09:55:10;;;;;;;22.45;15.13;;;10.10;99.90;;;;;;5035882;28;20458;-64
2021/12/13 09:57:51;;;;;;;25.15;15.10;;;10.00;99.90;;;;;;5030209;28;20049;-62
2021/12/13 10:00:35;;;;;;;28.52;16.90;;;10.00;99.90;;;;;;5030882;28;20060;-61
2021/12/13 10:03:07;;;;;;;24.83;15.55;;;10.30;99.90;;;;;;5032126;28;20045;-61
2021/12/13 10:05:39;;;;;;;22.38;16.17;;;10.10;99.90;;;;;;5031882;28;20041;-62
2021/12/13 10:08:09;;;;;;;25.13;17.23;;;10.10;99.90;;;;;;5031947;28;20087;-62
2021/12/13 10:10:46;;;;;;;25.35;16.13;;;10.10;99.90;;;;;;5031339;28;20048;-61
2021/12/13 10:13:21;;;;;;;22.95;15.52;;;10.00;99.90;;;;;;5027566;28;20521;-61
2021/12/13 10:15:52;;;;;;;24.95;15.98;;;9.90;99.90;;;;;;5032005;28;20053;-61
2021/12/13 10:18:21;;;;;;;26.67;17.60;;;10.00;99.90;;;;;;5030442;28;20056;-62
2021/12/13 10:20:55;;;;;;;26.90;16.35;;;10.10;99.90;;;;;;5042412;28;20037;-62
2021/12/13 10:23:29;;;;;;;25.27;15.43;;;10.20;99.90;;;;;;5030411;28;20041;-61
2021/12/13 10:26:04;;;;;;;28.77;16.67;;;10.10;99.90;;;;;;5036589;28;20053;-62
2021/12/13 10:28:35;;;;;;;30.40;17.55;;;10.10;99.90;;;;;;5031412;28;20056;-62
2021/12/13 10:31:07;;;;;;;26.98;16.48;;;10.00;99.90;;;;;;5031174;28;20072;-61
2021/12/13 10:33:37;;;;;;;29.25;16.20;;;10.20;99.90;;;;;;5043935;28;20047;-62
2021/12/13 10:36:04;;;;;;;23.48;15.43;;;10.00;99.90;;;;;;5043345;28;20044;-64
2021/12/13 10:38:35;;;;;;;32.80;18.48;;;10.10;99.90;;;;;;5030107;28;20539;-62
2021/12/13 10:41:08;;;;;;;25.98;16.73;;;10.20;99.90;;;;;;5031099;28;20434;-62
2021/12/13 10:43:48;;;;;;;28.05;14.85;;;10.20;99.90;;;;;;5038825;28;20398;-62
2021/12/13 10:46:20;;;;;;;28.75;16.42;;;10.30;99.90;;;;;;5040680;28;20045;-61
2021/12/13 10:48:51;;;;;;;25.95;16.23;;;10.30;99.90;;;;;;5036849;28;20049;-66
2021/12/13 10:51:30;;;;;;;27.92;15.63;;;10.40;99.90;;;;;;5042813;28;20372;-61
2021/12/13 10:53:58;;;;;;;24.13;16.35;;;10.40;99.90;;;;;;5031534;28;20094;-61
2021/12/13 10:56:35;;;;;;;28.42;15.68;;;10.20;99.90;;;;;;5035700;28;20175;-61
2021/12/13 10:59:04;;;;;;;27.17;16.05;;;;;;;;;;5038364;28;20045;-60
2021/12/13 11:01:37;;;;;;;27.25;17.05;;;10.30;99.90;;;;;;5032204;28;20077;-60
2021/12/13 11:04:07;;;;;;;27.25;16.60;;;10.40;99.90;;;;;;5029667;28;20041;-61
2021/12/13 11:06:35;;;;;;;27.08;15.15;;;10.30;99.90;;;;;;5030957;28;20387;-58
2021/12/13 11:09:05;;;;;;;26.75;15.68;;;10.40;99.90;;;;;;5031049;28;20504;-60
2021/12/13 11:11:39;;;;;;;24.52;15.27;;;10.30;99.90;;;;;;5029547;28;20463;-60
2021/12/13 11:14:11;;;;;;;30.23;16.95;;;10.40;99.90;;;;;;5025774;28;20503;-60
2021/12/13 11:16:41;;;;;;;27.08;15.68;;;10.20;99.90;;;;;;5031289;28;20072;-61
2021/12/13 11:19:12;;;;;;;29.88;16.50;;;10.10;99.90;;;;;;5030229;28;20445;-61
2021/12/13 11:21:41;;;;;;;27.10;15.45;;;10.10;99.90;;;;;;5027316;28;20039;-61
2021/12/13 11:24:12;;;;;;;24.38;15.80;;;10.20;99.90;;;;;;5044240;28;20095;-61
2021/12/13 11:26:42;;;;;;;29.42;16.95;;;10.30;99.90;;;;;;5042035;28;20064;-60
2021/12/13 11:29:10;;;;;;;26.70;15.77;;;10.30;99.90;;;;;;5043039;28;20154;-61
2021/12/13 11:32:09;;;;;;;36.83;17.42;;;10.30;99.90;;;;;;5033563;28;20041;-60
2021/12/13 11:35:10;;;;;;;30.05;16.10;;;10.30;99.90;;;;;;5024680;28;20439;-61
2021/12/13 11:38:10;;;;;;;27.40;15.20;;;10.30;99.90;;;;;;5039258;28;20098;-62
2021/12/13 11:41:03;;;;;;;25.77;16.42;;;10.20;99.90;;;;;;5026882;28;20708;-62
2021/12/13 11:44:06;;;;;;;31.40;18.05;;;10.20;99.90;;;;;;5035676;28;20040;-62
2021/12/13 11:46:41;;;;;;;27.15;15.55;;;10.20;99.90;;;;;;5032609;28;20053;-61
2021/12/13 11:49:33;;;;;;;28.73;16.13;;;10.20;99.90;;;;;;5042558;28;20040;-62
2021/12/13 11:52:20;;;;;;;31.30;16.30;;;10.30;99.90;;;;;;5041024;28;20084;-62
2021/12/13 11:55:24;;;;;;;30.25;15.95;;;10.40;99.90;;;;;;5030521;28;20041;-63
2021/12/13 11:58:28;;;;;;;28.75;16.15;;;10.50;99.90;;;;;;5037497;28;20049;-63
2021/12/13 12:01:23;;;;;;;30.13;15.98;;;10.40;99.90;;;;;;5026450;28;20376;-61
2021/12/13 12:03:53;;;;;;;29.77;15.70;;;10.40;99.90;;;;;;5032966;28;20087;-61
2021/12/13 12:06:19;;;;;;;31.00;16.52;;;;;;;;;;5036503;28;20683;-62
2021/12/13 12:09:00;;;;;;;26.10;15.35;;;10.50;99.90;;;;;;5032634;28;20456;-61
2021/12/13 12:11:50;;;;;;;26.60;15.63;;;10.60;99.90;;;;;;5030073;28;20487;-63
2021/12/13 12:14:23;;;;;;;25.02;16.17;;;10.60;99.90;;;;;;5032453;28;20037;-62
2021/12/13 12:16:50;;;;;;;27.40;15.43;;;10.50;99.90;;;;;;5038761;28;20052;-62
2021/12/13 12:19:34;;;;;;;26.27;16.13;;;10.70;99.90;;;;;;5044094;28;20535;-62
2021/12/13 12:22:06;;;;;;;27.58;14.43;;;10.70;99.90;;;;;;5043756;28;20068;-64
2021/12/13 12:24:56;;;;;;;25.15;15.18;;;10.70;99.90;;;;;;5045637;28;20084;-62
2021/12/13 12:27:31;;;;;;;26.98;14.57;;;10.70;99.90;;;;;;5044268;28;20057;-61
2021/12/13 12:30:00;;;;;;;24.13;15.05;;;10.70;99.90;;;;;;5015432;28;20091;-60
2021/12/13 12:32:28;;;;;;;25.00;13.95;;;10.70;99.90;;;;;;5033772;28;20045;-62
2021/12/13 12:35:11;;;;;;;23.33;13.98;;;10.70;99.90;;;;;;5032564;28;20411;-62
2021/12/13 12:38:05;;;;;;;24.40;13.60;;;10.90;99.90;;;;;;5032290;28;20048;-62
2021/12/13 12:40:47;;;;;;;22.10;12.63;;;10.80;99.90;;;;;;5034107;28;20084;-63
2021/12/13 12:43:16;;;;;;;24.98;13.23;;;10.90;99.90;;;;;;5030895;28;20049;-62
2021/12/13 12:45:46;;;;;;;24.17;13.10;;;10.70;99.90;;;;;;5031318;28;20064;-62
2021/12/13 12:48:20;;;;;;;25.17;14.82;;;10.60;99.90;;;;;;5030217;28;20033;-62
2021/12/13 12:50:53;;;;;;;27.77;14.32;;;10.80;99.90;;;;;;5033586;28;20055;-62
2021/12/13 12:53:34;;;;;;;23.25;14.50;;;10.70;99.90;;;;;;5037848;28;20403;-62
2021/12/13 12:56:10;;;;;;;24.30;14.15;;;10.70;99.90;;;;;;5046286;28;20074;-62
2021/12/13 12:58:44;;;;;;;21.92;13.48;;;10.80;99.90;;;;;;5033572;28;20044;-62
2021/12/13 13:01:21;;;;;;;23.60;13.50;;;10.80;99.90;;;;;;5033713;28;20045;-63
2021/12/13 13:03:47;;;;;;;24.15;13.07;;;10.60;99.90;;;;;;5031597;28;20033;-62
2021/12/13 13:06:24;;;;;;;26.00;14.30;;;10.70;99.90;;;;;;5033286;28;20038;-63
2021/12/13 13:08:53;;;;;;;23.83;14.50;;;10.60;99.90;;;;;;5033274;28;20535;-63
2021/12/13 13:11:34;;;;;;;24.58;13.80;;;10.60;99.90;;;;;;5033203;28;20034;-63
2021/12/13 13:14:10;;;;;;;21.27;13.07;;;10.60;99.90;;;;;;5028980;28;20051;-63
2021/12/13 13:16:45;;;;;;;22.25;13.57;;;10.50;99.90;;;;;;5031577;28;20628;-63
2021/12/13 13:19:27;;;;;;;22.13;12.95;;;10.60;99.90;;;;;;5026896;28;20403;-62
2021/12/13 13:21:57;;;;;;;21.55;13.18;;;10.60;99.90;;;;;;5031704;28;20087;-63
2021/12/13 13:24:22;;;;;;;21.73;12.57;;;10.50;99.90;;;;;;5031028;28;20412;-63
2021/12/13 13:26:49;;;;;;;21.80;12.82;;;10.70;99.90;;;;;;5032718;28;20037;-63
2021/12/13 13:29:18;;;;;;;23.17;14.15;;;10.50;99.90;;;;;;5032861;28;20041;-63
2021/12/13 13:31:57;;;;;;;25.17;14.68;;;10.70;99.90;;;;;;5032923;28;20037;-62